createdAt,value
2018-09-03T00:00:23.785Z,18.46
2018-09-03T00:02:55.097Z,18.39
2018-09-03T00:05:25.684Z,18.41
2018-09-03T00:07:56.246Z,18.35
2018-09-03T00:10:26.707Z,18.30
2018-09-03T00:12:57.259Z,18.20
2018-09-03T00:15:27.805Z,18.18
2018-09-03T00:17:58.474Z,18.17
2018-09-03T00:20:29.170Z,18.15
2018-09-03T00:22:59.801Z,18.12
2018-09-03T00:25:30.525Z,18.08
2018-09-03T00:28:00.933Z,18.07
2018-09-03T00:30:31.228Z,18.05
2018-09-03T00:33:06.836Z,18.01
2018-09-03T00:35:42.261Z,17.97
2018-09-03T00:38:17.811Z,17.98
2018-09-03T00:40:53.407Z,17.97
2018-09-03T00:43:28.805Z,17.97
2018-09-03T00:46:04.363Z,17.91
2018-09-03T00:48:34.995Z,17.92
2018-09-03T00:51:05.736Z,17.94
2018-09-03T00:53:36.427Z,17.97
2018-09-03T00:56:07.239Z,18.03
2018-09-03T00:58:37.976Z,18.09
2018-09-03T01:01:08.344Z,18.16
2018-09-03T01:03:38.983Z,18.17
2018-09-03T01:06:09.361Z,18.22
2018-09-03T01:08:39.703Z,18.27
2018-09-03T01:11:10.378Z,18.30
2018-09-03T01:13:40.895Z,18.28
2018-09-03T01:16:11.337Z,18.31
2018-09-03T01:18:43.276Z,18.30
2018-09-03T01:21:13.910Z,18.28
2018-09-03T01:23:44.223Z,18.35
2018-09-03T01:26:14.760Z,18.35
2018-09-03T01:28:45.150Z,18.35
2018-09-03T01:31:18.711Z,18.36
2018-09-03T01:33:52.248Z,18.36
2018-09-03T01:36:23.082Z,18.38
2018-09-03T01:38:53.652Z,18.40
2018-09-03T01:41:23.854Z,18.39
2018-09-03T01:43:54.248Z,18.39
2018-09-03T01:46:24.843Z,18.37
2018-09-03T01:48:55.551Z,18.39
2018-09-03T01:51:26.122Z,18.37
2018-09-03T01:53:56.612Z,18.35
2018-09-03T01:56:26.941Z,18.33
2018-09-03T01:58:57.420Z,18.37
2018-09-03T02:01:27.893Z,18.39
2018-09-03T02:03:58.412Z,18.40
2018-09-03T02:06:28.969Z,18.41
2018-09-03T02:09:09.641Z,18.39
2018-09-03T02:11:40.578Z,18.36
2018-09-03T02:14:11.077Z,18.34
2018-09-03T02:16:41.501Z,18.31
2018-09-03T02:19:11.911Z,18.28
2018-09-03T02:21:42.257Z,18.21
2018-09-03T02:24:12.589Z,18.23
2018-09-03T02:26:42.972Z,18.21
2018-09-03T02:29:13.422Z,18.16
2018-09-03T02:31:46.802Z,18.11
2018-09-03T02:34:17.362Z,18.07
2018-09-03T02:36:47.702Z,18.06
2018-09-03T02:39:18.091Z,18.04
2018-09-03T02:41:48.378Z,18.03
2018-09-03T02:44:18.873Z,18.03
2018-09-03T02:46:49.615Z,18.01
2018-09-03T02:49:19.935Z,18.00
2018-09-03T02:51:50.246Z,18.01
2018-09-03T02:54:20.701Z,18.01
2018-09-03T02:56:51.091Z,18.01
2018-09-03T02:59:21.607Z,18.00
2018-09-03T03:01:52.216Z,18.01
2018-09-03T03:04:22.700Z,18.02
2018-09-03T03:06:53.133Z,18.03
2018-09-03T03:09:23.636Z,18.05
2018-09-03T03:11:54.297Z,18.04
2018-09-03T03:14:24.798Z,18.05
2018-09-03T03:16:55.671Z,18.06
2018-09-03T03:19:26.200Z,18.05
2018-09-03T03:21:56.923Z,18.04
2018-09-03T03:24:27.271Z,18.06
2018-09-03T03:26:57.802Z,18.07
2018-09-03T03:29:28.289Z,18.08
2018-09-03T03:31:58.781Z,18.07
2018-09-03T03:34:29.246Z,18.05
2018-09-03T03:36:59.802Z,18.07
2018-09-03T03:39:30.300Z,18.07
2018-09-03T03:42:00.614Z,18.04
2018-09-03T03:44:30.906Z,18.01
2018-09-03T03:47:01.416Z,17.99
2018-09-03T03:49:32.048Z,17.98
2018-09-03T03:52:02.605Z,17.97
2018-09-03T03:54:33.163Z,17.96
2018-09-03T03:57:03.831Z,17.93
2018-09-03T03:59:34.220Z,17.95
2018-09-03T04:02:04.959Z,17.95
2018-09-03T04:04:35.306Z,17.92
2018-09-03T04:07:05.745Z,17.90
2018-09-03T04:09:36.155Z,17.89
2018-09-03T04:12:06.722Z,17.89
2018-09-03T04:14:37.031Z,17.88
2018-09-03T04:17:07.947Z,17.87
2018-09-03T04:19:38.470Z,17.87
2018-09-03T04:22:08.765Z,17.77
2018-09-03T04:24:39.246Z,17.74
2018-09-03T04:27:09.776Z,17.76
2018-09-03T04:29:40.080Z,17.79
2018-09-03T04:32:10.581Z,17.79
2018-09-03T04:34:41.026Z,17.80
2018-09-03T04:37:11.655Z,17.79
2018-09-03T04:39:42.321Z,17.78
2018-09-03T04:42:12.577Z,17.77
2018-09-03T04:44:42.996Z,17.80
2018-09-03T04:47:13.584Z,17.81
2018-09-03T04:49:44.230Z,17.81
2018-09-03T04:52:14.524Z,17.81
2018-09-03T04:54:45.144Z,17.82
2018-09-03T04:57:15.352Z,17.84
2018-09-03T04:59:46.014Z,17.84
2018-09-03T05:02:17.040Z,17.85
2018-09-03T05:04:47.415Z,17.88
2018-09-03T05:07:17.936Z,17.91
2018-09-03T05:09:48.364Z,17.97
2018-09-03T05:12:18.689Z,17.98
2018-09-03T05:14:49.242Z,18.05
2018-09-03T05:17:19.722Z,18.11
2018-09-03T05:19:50.198Z,18.18
2018-09-03T05:22:20.888Z,18.22
2018-09-03T05:24:51.329Z,18.29
2018-09-03T05:27:21.605Z,18.34
2018-09-03T05:29:52.211Z,18.44
2018-09-03T05:32:22.803Z,18.56
2018-09-03T05:34:53.280Z,18.66
2018-09-03T05:37:23.857Z,18.77
2018-09-03T05:39:54.302Z,18.98
2018-09-03T05:42:24.528Z,19.14
2018-09-03T05:44:54.956Z,19.34
2018-09-03T05:47:25.447Z,19.56
2018-09-03T05:49:56.013Z,19.64
2018-09-03T05:52:26.566Z,19.62
2018-09-03T05:54:57.080Z,19.60
2018-09-03T05:57:27.672Z,19.47
2018-09-03T05:59:58.066Z,19.36
2018-09-03T06:02:28.511Z,19.38
2018-09-03T06:04:59.206Z,19.39
2018-09-03T06:07:29.696Z,19.36
2018-09-03T06:10:00.081Z,19.48
2018-09-03T06:12:30.579Z,19.58
2018-09-03T06:15:01.238Z,19.76
2018-09-03T06:17:31.665Z,19.95
2018-09-03T06:20:02.035Z,20.13
2018-09-03T06:22:32.693Z,20.25
2018-09-03T06:25:03.204Z,20.47
2018-09-03T06:27:33.504Z,20.63
2018-09-03T06:30:03.976Z,20.74
2018-09-03T06:32:34.265Z,20.74
2018-09-03T06:35:04.876Z,20.71
2018-09-03T06:37:35.437Z,20.73
2018-09-03T06:40:05.982Z,20.60
2018-09-03T06:42:36.326Z,20.43
2018-09-03T06:45:06.786Z,20.28
2018-09-03T06:47:37.330Z,20.10
2018-09-03T06:50:07.905Z,20.05
2018-09-03T06:52:38.355Z,20.09
2018-09-03T06:55:08.955Z,20.12
2018-09-03T06:57:39.664Z,20.22
2018-09-03T07:00:10.017Z,20.33
2018-09-03T07:02:41.880Z,20.47
2018-09-03T07:05:12.716Z,20.62
2018-09-03T07:07:43.327Z,20.74
2018-09-03T07:10:13.870Z,20.84
2018-09-03T07:12:44.030Z,20.93
2018-09-03T07:15:14.519Z,20.95
2018-09-03T07:17:44.777Z,21.04
2018-09-03T07:20:15.165Z,21.05
2018-09-03T07:22:45.529Z,20.93
2018-09-03T07:25:15.742Z,21.00
2018-09-03T07:27:46.287Z,21.06
2018-09-03T07:30:16.674Z,21.13
2018-09-03T07:32:47.060Z,21.16
2018-09-03T07:35:17.446Z,21.37
2018-09-03T07:37:47.729Z,21.68
2018-09-03T07:40:18.326Z,21.93
2018-09-03T07:42:48.679Z,21.94
2018-09-03T07:45:19.163Z,21.93
2018-09-03T07:47:49.637Z,21.77
2018-09-03T07:50:19.874Z,21.86
2018-09-03T07:52:50.238Z,22.07
2018-09-03T07:55:20.738Z,22.29
2018-09-03T07:57:51.243Z,22.41
2018-09-03T08:00:21.578Z,22.19
2018-09-03T08:02:58.361Z,22.04
2018-09-03T08:05:29.362Z,21.88
2018-09-03T08:07:59.879Z,21.82
2018-09-03T08:10:30.461Z,21.56
2018-09-03T08:13:01.080Z,21.56
2018-09-03T08:15:31.355Z,21.43
2018-09-03T08:18:01.809Z,21.40
2018-09-03T08:20:32.686Z,21.50
2018-09-03T08:23:03.167Z,21.65
2018-09-03T08:25:33.742Z,21.70
2018-09-03T08:28:04.377Z,21.51
2018-09-03T08:30:34.702Z,21.40
2018-09-03T08:33:05.178Z,21.30
2018-09-03T08:35:35.720Z,21.23
2018-09-03T08:38:06.463Z,21.14
2018-09-03T08:40:37.029Z,21.13
2018-09-03T08:43:07.747Z,21.08
2018-09-03T08:45:38.421Z,21.20
2018-09-03T08:48:09.010Z,21.36
2018-09-03T08:50:39.697Z,21.44
2018-09-03T08:53:09.927Z,21.38
2018-09-03T08:55:40.909Z,21.45
2018-09-03T08:58:11.343Z,21.51
2018-09-03T09:00:41.873Z,21.95
2018-09-03T09:03:17.359Z,22.49
2018-09-03T09:05:47.854Z,22.89
2018-09-03T09:08:18.171Z,23.28
2018-09-03T09:10:48.796Z,23.65
2018-09-03T09:13:19.842Z,23.99
2018-09-03T09:15:50.452Z,24.25
2018-09-03T09:18:20.835Z,24.39
2018-09-03T09:20:51.367Z,24.60
2018-09-03T09:23:21.828Z,24.75
2018-09-03T09:25:52.288Z,24.85
2018-09-03T09:28:22.786Z,24.73
2018-09-03T09:30:53.697Z,24.56
2018-09-03T09:33:24.242Z,24.48
2018-09-03T09:35:55.047Z,24.28
2018-09-03T09:38:25.645Z,23.93
2018-09-03T09:40:56.059Z,23.86
2018-09-03T09:43:26.606Z,23.95
2018-09-03T09:45:57.128Z,24.48
2018-09-03T09:48:27.632Z,24.89
2018-09-03T09:50:58.212Z,25.27
2018-09-03T09:53:28.810Z,25.32
2018-09-03T09:55:59.327Z,25.19
2018-09-03T09:58:30.152Z,25.20
2018-09-03T10:01:05.967Z,25.13
2018-09-03T10:03:36.991Z,25.23
2018-09-03T10:06:07.371Z,25.27
2018-09-03T10:08:42.886Z,25.75
2018-09-03T10:11:13.547Z,26.21
2018-09-03T10:13:44.111Z,26.53
2018-09-03T10:16:14.346Z,26.71
2018-09-03T10:18:44.965Z,26.42
2018-09-03T10:21:15.456Z,26.20
2018-09-03T10:23:48.632Z,26.31
2018-09-03T10:26:22.098Z,26.44
2018-09-03T10:28:52.871Z,26.36
2018-09-03T10:31:26.690Z,26.18
2018-09-03T10:33:57.435Z,25.87
2018-09-03T10:36:30.079Z,25.48
2018-09-03T10:39:02.148Z,25.04
2018-09-03T10:41:33.100Z,24.89
2018-09-03T10:44:04.006Z,24.84
2018-09-03T10:46:35.624Z,24.75
2018-09-03T10:49:09.749Z,24.65
2018-09-03T10:51:44.382Z,24.33
2018-09-03T10:54:15.690Z,24.28
2018-09-03T10:56:49.692Z,24.19
2018-09-03T10:59:20.127Z,24.30
2018-09-03T11:01:50.820Z,24.48
2018-09-03T11:04:22.107Z,24.77
2018-09-03T11:06:55.919Z,25.09
2018-09-03T11:09:28.482Z,25.14
2018-09-03T11:12:01.183Z,25.34
2018-09-03T11:14:31.812Z,25.47
2018-09-03T11:17:03.012Z,25.66
2018-09-03T11:19:41.562Z,25.71
2018-09-03T11:22:12.383Z,25.91
2018-09-03T11:24:44.766Z,26.12
2018-09-03T11:27:16.562Z,26.40
2018-09-03T11:29:51.817Z,26.61
2018-09-03T11:32:23.614Z,26.55
2018-09-03T11:34:54.077Z,26.71
2018-09-03T11:37:26.374Z,27.01
2018-09-03T11:39:58.887Z,27.93
2018-09-03T11:42:29.467Z,28.89
2018-09-03T11:45:02.887Z,29.30
2018-09-03T11:47:36.199Z,29.81
2018-09-03T11:50:08.700Z,30.02
2018-09-03T11:52:40.165Z,29.73
2018-09-03T11:55:13.959Z,29.06
2018-09-03T11:57:44.232Z,28.92
2018-09-03T12:00:28.566Z,28.62
2018-09-03T12:03:03.106Z,28.34
2018-09-03T12:05:33.672Z,28.08
2018-09-03T12:08:04.197Z,27.84
2018-09-03T12:10:34.711Z,27.84
2018-09-03T12:13:05.307Z,28.07
2018-09-03T12:15:40.855Z,28.21
2018-09-03T12:18:11.364Z,28.28
2018-09-03T12:20:41.919Z,28.88
2018-09-03T12:23:12.428Z,30.83
2018-09-03T12:25:42.938Z,33.47
2018-09-03T12:28:13.317Z,35.44
2018-09-03T12:30:43.707Z,35.70
2018-09-03T12:33:14.340Z,35.16
2018-09-03T12:35:44.570Z,34.63
2018-09-03T12:38:14.889Z,33.00
2018-09-03T12:40:45.140Z,32.24
2018-09-03T12:43:15.814Z,31.90
2018-09-03T12:45:51.339Z,31.33
2018-09-03T12:48:22.110Z,30.26
2018-09-03T12:50:52.571Z,29.45
2018-09-03T12:53:23.113Z,28.96
2018-09-03T12:55:53.419Z,28.72
2018-09-03T12:58:23.820Z,28.17
2018-09-03T13:00:54.431Z,27.51
2018-09-03T13:03:24.933Z,27.22
2018-09-03T13:05:55.637Z,27.00
2018-09-03T13:08:26.593Z,26.95
2018-09-03T13:10:57.125Z,26.88
2018-09-03T13:13:27.459Z,27.14
2018-09-03T13:15:57.883Z,27.73
2018-09-03T13:18:28.179Z,27.86
2018-09-03T13:21:05.423Z,29.61
2018-09-03T13:23:36.034Z,31.72
2018-09-03T13:26:06.543Z,33.39
2018-09-03T13:28:36.955Z,33.88
2018-09-03T13:31:07.482Z,35.20
2018-09-03T13:33:38.104Z,34.22
2018-09-03T13:36:08.686Z,32.21
2018-09-03T13:38:39.260Z,31.24
2018-09-03T13:41:09.526Z,30.34
2018-09-03T13:43:40.122Z,29.41
2018-09-03T13:46:10.591Z,29.54
2018-09-03T13:48:41.108Z,29.28
2018-09-03T13:51:11.655Z,28.21
2018-09-03T13:53:42.342Z,27.80
2018-09-03T13:56:18.328Z,27.65
2018-09-03T13:58:49.022Z,27.18
2018-09-03T14:01:19.770Z,26.96
2018-09-03T14:03:50.878Z,27.13
2018-09-03T14:06:21.330Z,27.90
2018-09-03T14:08:51.590Z,30.68
2018-09-03T14:11:22.310Z,34.63
2018-09-03T14:13:53.063Z,37.61
2018-09-03T14:16:23.732Z,40.18
2018-09-03T14:18:54.505Z,41.36
2018-09-03T14:21:24.818Z,43.00
2018-09-03T14:23:55.327Z,44.11
2018-09-03T14:26:25.768Z,43.58
2018-09-03T14:28:56.119Z,43.05
2018-09-03T14:31:26.463Z,43.81
2018-09-03T14:33:56.732Z,43.78
2018-09-03T14:36:27.100Z,43.59
2018-09-03T14:38:57.500Z,42.83
2018-09-03T14:41:28.133Z,43.90
2018-09-03T14:43:58.560Z,43.17
2018-09-03T14:46:29.106Z,42.33
2018-09-03T14:48:59.379Z,41.41
2018-09-03T14:51:30.071Z,42.16
2018-09-03T14:54:00.502Z,42.02
2018-09-03T14:56:31.137Z,41.12
2018-09-03T14:59:01.527Z,40.39
2018-09-03T15:01:32.316Z,40.13
2018-09-03T15:04:02.632Z,39.22
2018-09-03T15:06:32.961Z,37.44
2018-09-03T15:09:03.323Z,36.74
2018-09-03T15:11:33.881Z,37.61
2018-09-03T15:14:04.404Z,38.60
2018-09-03T15:16:35.347Z,38.56
2018-09-03T15:19:06.501Z,37.87
2018-09-03T15:21:36.925Z,36.59
2018-09-03T15:24:07.328Z,35.69
2018-09-03T15:26:37.921Z,35.23
2018-09-03T15:29:08.464Z,35.03
2018-09-03T15:31:39.200Z,33.91
2018-09-03T15:34:10.309Z,33.10
2018-09-03T15:36:41.001Z,31.84
2018-09-03T15:39:12.704Z,31.46
2018-09-03T15:41:43.413Z,31.55
2018-09-03T15:44:14.038Z,31.53
2018-09-03T15:46:44.523Z,31.09
2018-09-03T15:49:14.769Z,30.52
2018-09-03T15:51:45.263Z,30.13
2018-09-03T15:54:15.752Z,29.91
2018-09-03T15:56:46.087Z,29.66
2018-09-03T15:59:16.368Z,29.54
2018-09-03T16:01:46.859Z,29.59
2018-09-03T16:04:17.469Z,28.88
2018-09-03T16:06:48.031Z,28.01
2018-09-03T16:09:18.719Z,27.74
2018-09-03T16:11:49.359Z,27.57
2018-09-03T16:14:19.767Z,27.50
2018-09-03T16:16:50.461Z,27.31
2018-09-03T16:19:20.681Z,27.13
2018-09-03T16:21:51.223Z,27.01
2018-09-03T16:24:21.766Z,26.67
2018-09-03T16:26:52.158Z,26.10
2018-09-03T16:29:22.914Z,25.93
2018-09-03T16:31:53.435Z,25.59
2018-09-03T16:34:25.779Z,25.41
2018-09-03T16:36:56.443Z,25.20
2018-09-03T16:39:32.406Z,25.23
2018-09-03T16:42:02.975Z,25.06
2018-09-03T16:44:33.594Z,25.02
2018-09-03T16:47:05.092Z,24.84
2018-09-03T16:49:35.577Z,24.59
2018-09-03T16:52:05.878Z,24.20
2018-09-03T16:54:36.573Z,23.65
2018-09-03T16:57:07.134Z,23.23
2018-09-03T16:59:37.709Z,22.86
2018-09-03T17:02:08.456Z,22.50
2018-09-03T17:04:38.891Z,22.36
2018-09-03T17:07:09.516Z,22.35
2018-09-03T17:09:40.019Z,22.34
2018-09-03T17:12:10.527Z,22.20
2018-09-03T17:14:40.968Z,22.21
2018-09-03T17:17:11.569Z,22.15
2018-09-03T17:19:41.920Z,22.09
2018-09-03T17:22:12.490Z,22.08
2018-09-03T17:24:45.910Z,21.99
2018-09-03T17:27:16.295Z,21.98
2018-09-03T17:29:46.767Z,21.89
2018-09-03T17:32:17.531Z,21.87
2018-09-03T17:34:47.774Z,21.83
2018-09-03T17:37:18.214Z,21.87
2018-09-03T17:39:48.610Z,21.92
2018-09-03T17:42:19.188Z,21.99
2018-09-03T17:44:49.666Z,22.12
2018-09-03T17:47:20.045Z,22.15
2018-09-03T17:49:50.470Z,22.18
2018-09-03T17:52:20.721Z,22.26
2018-09-03T17:54:51.347Z,22.26
2018-09-03T17:57:21.959Z,22.19
2018-09-03T17:59:52.437Z,22.17
2018-09-03T18:02:22.802Z,22.12
2018-09-03T18:04:53.203Z,22.09
2018-09-03T18:07:23.668Z,22.01
2018-09-03T18:09:54.351Z,21.96
2018-09-03T18:12:24.655Z,21.91
2018-09-03T18:14:55.317Z,21.90
2018-09-03T18:17:25.824Z,21.95
2018-09-03T18:19:56.482Z,22.03
2018-09-03T18:22:27.108Z,21.96
2018-09-03T18:24:57.623Z,21.91
2018-09-03T18:27:28.309Z,21.91
2018-09-03T18:29:58.975Z,21.93
2018-09-03T18:32:29.562Z,21.81
2018-09-03T18:34:59.822Z,21.72
2018-09-03T18:37:30.474Z,21.68
2018-09-03T18:40:00.951Z,21.61
2018-09-03T18:42:31.622Z,21.60
2018-09-03T18:45:02.275Z,21.65
2018-09-03T18:47:32.828Z,21.64
2018-09-03T18:50:03.515Z,21.58
2018-09-03T18:52:34.203Z,21.52
2018-09-03T18:55:04.713Z,21.48
2018-09-03T18:57:35.441Z,21.48
2018-09-03T19:00:06.509Z,21.41
2018-09-03T19:02:37.049Z,21.39
2018-09-03T19:05:07.776Z,21.34
2018-09-03T19:07:38.515Z,21.39
2018-09-03T19:10:09.194Z,21.42
2018-09-03T19:12:39.961Z,21.45
2018-09-03T19:15:10.480Z,21.44
2018-09-03T19:17:42.163Z,21.48
2018-09-03T19:20:13.478Z,21.45
2018-09-03T19:22:44.345Z,21.38
2018-09-03T19:25:15.042Z,21.29
2018-09-03T19:27:45.687Z,21.14
2018-09-03T19:30:15.875Z,21.20
2018-09-03T19:32:52.862Z,21.24
2018-09-03T19:35:23.246Z,21.21
2018-09-03T19:37:53.674Z,21.07
2018-09-03T19:40:24.183Z,21.07
2018-09-03T19:42:54.747Z,21.05
2018-09-03T19:45:25.125Z,21.08
2018-09-03T19:47:55.795Z,21.10
2018-09-03T19:50:26.180Z,21.09
2018-09-03T19:52:56.643Z,21.12
2018-09-03T19:55:27.225Z,21.12
2018-09-03T19:57:57.855Z,21.09
2018-09-03T20:00:28.312Z,21.02
2018-09-03T20:02:58.979Z,21.06
2018-09-03T20:05:29.387Z,21.11
2018-09-03T20:07:59.825Z,21.10
2018-09-03T20:10:30.360Z,21.10
2018-09-03T20:13:00.790Z,21.06
2018-09-03T20:15:31.515Z,21.04
2018-09-03T20:18:02.056Z,21.01
2018-09-03T20:20:32.781Z,20.98
2018-09-03T20:23:03.071Z,20.99
2018-09-03T20:25:33.563Z,20.90
2018-09-03T20:28:04.151Z,20.89
2018-09-03T20:30:34.656Z,20.93
2018-09-03T20:33:05.355Z,20.94
2018-09-03T20:35:36.045Z,20.89
2018-09-03T20:38:06.403Z,20.87
2018-09-03T20:40:36.875Z,20.80
2018-09-03T20:43:07.333Z,20.83
2018-09-03T20:45:37.842Z,20.84
2018-09-03T20:48:08.467Z,20.85
2018-09-03T20:50:38.809Z,20.76
2018-09-03T20:53:09.255Z,20.75
2018-09-03T20:55:40.008Z,20.59
2018-09-03T20:58:10.616Z,20.48
2018-09-03T21:00:41.035Z,20.47
2018-09-03T21:03:11.550Z,20.46
2018-09-03T21:05:42.022Z,20.46
2018-09-03T21:08:12.372Z,20.47
2018-09-03T21:10:42.835Z,20.41
2018-09-03T21:13:13.480Z,20.32
2018-09-03T21:15:43.984Z,20.28
2018-09-03T21:18:17.111Z,20.36
2018-09-03T21:20:47.306Z,20.33
2018-09-03T21:23:17.758Z,20.31
2018-09-03T21:25:48.350Z,20.29
2018-09-03T21:28:19.506Z,20.26
2018-09-03T21:30:49.806Z,20.27
2018-09-03T21:33:20.307Z,20.27
2018-09-03T21:35:50.515Z,20.25
2018-09-03T21:38:27.735Z,20.28
2018-09-03T21:40:58.176Z,20.17
2018-09-03T21:43:28.624Z,20.06
2018-09-03T21:45:59.127Z,20.11
2018-09-03T21:48:29.572Z,20.11
2018-09-03T21:51:00.095Z,20.07
2018-09-03T21:53:30.326Z,19.99
2018-09-03T21:56:00.774Z,19.94
2018-09-03T21:58:31.160Z,19.93
2018-09-03T22:01:01.602Z,19.88
2018-09-03T22:03:32.099Z,19.90
2018-09-03T22:06:02.534Z,19.91
2018-09-03T22:08:32.957Z,19.94
2018-09-03T22:11:03.304Z,19.90
2018-09-03T22:13:33.637Z,19.94
2018-09-03T22:16:04.312Z,19.94
2018-09-03T22:18:34.785Z,19.94
2018-09-03T22:21:05.401Z,19.96
2018-09-03T22:23:35.926Z,19.90
2018-09-03T22:26:06.422Z,19.89
2018-09-03T22:28:36.953Z,19.85
2018-09-03T22:31:07.514Z,19.83
2018-09-03T22:33:37.854Z,19.83
2018-09-03T22:36:08.527Z,19.84
2018-09-03T22:38:38.935Z,19.80
2018-09-03T22:41:10.087Z,19.82
2018-09-03T22:43:40.505Z,19.81
2018-09-03T22:46:10.941Z,19.75
2018-09-03T22:48:41.313Z,19.77
2018-09-03T22:51:11.891Z,19.78
2018-09-03T22:53:45.325Z,19.74
2018-09-03T22:56:15.530Z,19.74
2018-09-03T22:58:45.949Z,19.66
2018-09-03T23:01:16.348Z,19.64
2018-09-03T23:03:46.607Z,19.66
2018-09-03T23:06:17.128Z,19.59
2018-09-03T23:08:47.494Z,19.59
2018-09-03T23:11:17.915Z,19.56
2018-09-03T23:13:48.545Z,19.49
2018-09-03T23:16:19.041Z,19.47
2018-09-03T23:18:49.675Z,19.42
2018-09-03T23:21:20.141Z,19.43
2018-09-03T23:23:50.459Z,19.43
2018-09-03T23:26:20.841Z,19.42
2018-09-03T23:28:51.268Z,19.40
2018-09-03T23:31:21.661Z,19.42
2018-09-03T23:33:52.021Z,19.44
2018-09-03T23:36:22.229Z,19.42
2018-09-03T23:38:52.773Z,19.43
2018-09-03T23:41:23.167Z,19.38
2018-09-03T23:43:53.466Z,19.36
2018-09-03T23:46:23.789Z,19.33
2018-09-03T23:48:54.208Z,19.33
2018-09-03T23:51:24.546Z,19.31
2018-09-03T23:53:55.031Z,19.35
2018-09-03T23:56:25.499Z,19.34
2018-09-03T23:58:55.984Z,19.32
